sensor_id;sensor_type;location;lat;lon;timestamp;temperature;humidity
40323;DHT22;26030;51.164;17.100;2023-05-23T00:01:12;24.90;59.00
40323;DHT22;26030;51.164;17.100;2023-05-23T00:06:18;24.90;59.10
40323;DHT22;26030;51.164;17.100;2023-05-23T00:11:24;24.90;59.20
40323;DHT22;26030;51.164;17.100;2023-05-23T00:16:30;24.80;59.30
40323;DHT22;26030;51.164;17.100;2023-05-23T00:21:35;24.80;59.50
40323;DHT22;26030;51.164;17.100;2023-05-23T00:26:39;24.70;59.50
40323;DHT22;26030;51.164;17.100;2023-05-23T00:31:44;24.70;59.70
40323;DHT22;26030;51.164;17.100;2023-05-23T00:36:49;24.70;59.60
40323;DHT22;26030;51.164;17.100;2023-05-23T00:41:54;24.70;60.00
40323;DHT22;26030;51.164;17.100;2023-05-23T00:46:58;24.70;60.10
40323;DHT22;26030;51.164;17.100;2023-05-23T00:52:03;24.70;60.10
40323;DHT22;26030;51.164;17.100;2023-05-23T00:57:08;24.70;60.00
40323;DHT22;26030;51.164;17.100;2023-05-23T01:02:12;24.60;60.00
40323;DHT22;26030;51.164;17.100;2023-05-23T01:07:16;24.60;60.20
40323;DHT22;26030;51.164;17.100;2023-05-23T01:12:37;24.60;60.30
40323;DHT22;26030;51.164;17.100;2023-05-23T01:28:44;24.60;59.70
40323;DHT22;26030;51.164;17.100;2023-05-23T01:33:50;24.60;60.20
40323;DHT22;26030;51.164;17.100;2023-05-23T01:38:57;24.60;60.60
40323;DHT22;26030;51.164;17.100;2023-05-23T01:44:03;24.50;60.50
40323;DHT22;26030;51.164;17.100;2023-05-23T01:49:08;24.60;60.20
40323;DHT22;26030;51.164;17.100;2023-05-23T01:54:14;24.50;60.40
40323;DHT22;26030;51.164;17.100;2023-05-23T01:59:19;24.50;60.20
40323;DHT22;26030;51.164;17.100;2023-05-23T02:04:23;24.50;60.60
40323;DHT22;26030;51.164;17.100;2023-05-23T02:09:28;24.50;60.60
40323;DHT22;26030;51.164;17.100;2023-05-23T02:14:32;24.50;60.50
40323;DHT22;26030;51.164;17.100;2023-05-23T02:19:36;24.50;60.40
40323;DHT22;26030;51.164;17.100;2023-05-23T02:24:40;24.50;60.50
40323;DHT22;26030;51.164;17.100;2023-05-23T02:29:45;24.40;60.50
40323;DHT22;26030;51.164;17.100;2023-05-23T02:34:49;24.40;60.50
40323;DHT22;26030;51.164;17.100;2023-05-23T02:39:54;24.40;61.00
40323;DHT22;26030;51.164;17.100;2023-05-23T02:44:59;24.40;61.20
40323;DHT22;26030;51.164;17.100;2023-05-23T02:50:04;24.30;60.50
40323;DHT22;26030;51.164;17.100;2023-05-23T02:55:09;24.30;60.70
40323;DHT22;26030;51.164;17.100;2023-05-23T03:00:16;24.40;60.60
40323;DHT22;26030;51.164;17.100;2023-05-23T03:05:24;24.30;60.70
40323;DHT22;26030;51.164;17.100;2023-05-23T03:10:30;24.30;60.70
40323;DHT22;26030;51.164;17.100;2023-05-23T03:15:35;24.30;60.70
40323;DHT22;26030;51.164;17.100;2023-05-23T03:20:39;24.20;60.90
40323;DHT22;26030;51.164;17.100;2023-05-23T03:25:44;24.20;60.80
40323;DHT22;26030;51.164;17.100;2023-05-23T03:30:48;24.20;60.90
40323;DHT22;26030;51.164;17.100;2023-05-23T03:35:52;24.20;60.80
40323;DHT22;26030;51.164;17.100;2023-05-23T03:40:57;24.20;61.10
40323;DHT22;26030;51.164;17.100;2023-05-23T03:46:01;24.20;60.80
40323;DHT22;26030;51.164;17.100;2023-05-23T03:51:07;24.20;60.70
40323;DHT22;26030;51.164;17.100;2023-05-23T03:56:12;24.20;60.80
40323;DHT22;26030;51.164;17.100;2023-05-23T04:01:16;24.20;60.80
40323;DHT22;26030;51.164;17.100;2023-05-23T04:06:22;24.20;61.50
40323;DHT22;26030;51.164;17.100;2023-05-23T04:11:26;24.20;60.80
40323;DHT22;26030;51.164;17.100;2023-05-23T04:16:31;24.10;60.80
40323;DHT22;26030;51.164;17.100;2023-05-23T04:21:36;24.10;60.80
40323;DHT22;26030;51.164;17.100;2023-05-23T04:26:45;24.10;60.90
40323;DHT22;26030;51.164;17.100;2023-05-23T04:31:50;24.10;60.80
40323;DHT22;26030;51.164;17.100;2023-05-23T04:36:54;24.10;60.80
40323;DHT22;26030;51.164;17.100;2023-05-23T04:41:59;24.10;61.10
40323;DHT22;26030;51.164;17.100;2023-05-23T04:47:21;24.10;60.70
40323;DHT22;26030;51.164;17.100;2023-05-23T04:52:37;24.10;60.80
40323;DHT22;26030;51.164;17.100;2023-05-23T04:57:41;24.20;60.60
40323;DHT22;26030;51.164;17.100;2023-05-23T05:02:47;24.10;61.10
40323;DHT22;26030;51.164;17.100;2023-05-23T05:07:51;24.10;60.70
40323;DHT22;26030;51.164;17.100;2023-05-23T05:12:55;24.10;60.80
40323;DHT22;26030;51.164;17.100;2023-05-23T05:18:02;24.20;60.30
40323;DHT22;26030;51.164;17.100;2023-05-23T05:23:07;24.20;60.50
40323;DHT22;26030;51.164;17.100;2023-05-23T05:28:12;24.20;60.80
40323;DHT22;26030;51.164;17.100;2023-05-23T05:33:20;24.20;60.40
40323;DHT22;26030;51.164;17.100;2023-05-23T05:38:34;24.30;60.00
40323;DHT22;26030;51.164;17.100;2023-05-23T05:43:39;24.20;60.30
40323;DHT22;26030;51.164;17.100;2023-05-23T05:48:44;24.20;60.70
40323;DHT22;26030;51.164;17.100;2023-05-23T05:53:49;24.20;60.80
40323;DHT22;26030;51.164;17.100;2023-05-23T05:58:54;24.10;61.10
40323;DHT22;26030;51.164;17.100;2023-05-23T06:03:59;24.20;61.20
40323;DHT22;26030;51.164;17.100;2023-05-23T06:09:05;24.30;61.10
40323;DHT22;26030;51.164;17.100;2023-05-23T06:14:10;24.50;60.10
40323;DHT22;26030;51.164;17.100;2023-05-23T06:19:17;24.40;61.00
40323;DHT22;26030;51.164;17.100;2023-05-23T06:24:22;24.40;60.80
40323;DHT22;26030;51.164;17.100;2023-05-23T06:29:26;24.40;60.40
40323;DHT22;26030;51.164;17.100;2023-05-23T06:34:30;24.40;60.60
40323;DHT22;26030;51.164;17.100;2023-05-23T06:39:35;24.50;60.30
40323;DHT22;26030;51.164;17.100;2023-05-23T06:44:39;24.50;60.00
40323;DHT22;26030;51.164;17.100;2023-05-23T06:49:44;24.60;58.60
40323;DHT22;26030;51.164;17.100;2023-05-23T06:54:49;24.60;59.60
40323;DHT22;26030;51.164;17.100;2023-05-23T06:59:54;24.50;60.00
40323;DHT22;26030;51.164;17.100;2023-05-23T07:04:58;24.60;59.30
40323;DHT22;26030;51.164;17.100;2023-05-23T07:10:21;24.50;60.10
40323;DHT22;26030;51.164;17.100;2023-05-23T07:15:27;24.40;59.50
40323;DHT22;26030;51.164;17.100;2023-05-23T07:20:49;24.30;57.90
40323;DHT22;26030;51.164;17.100;2023-05-23T07:25:55;24.50;55.50
40323;DHT22;26030;51.164;17.100;2023-05-23T07:31:16;24.40;54.60
40323;DHT22;26030;51.164;17.100;2023-05-23T07:36:21;24.30;55.30
40323;DHT22;26030;51.164;17.100;2023-05-23T07:41:26;24.40;55.60
40323;DHT22;26030;51.164;17.100;2023-05-23T07:46:30;24.40;55.30
40323;DHT22;26030;51.164;17.100;2023-05-23T07:51:35;24.40;55.10
40323;DHT22;26030;51.164;17.100;2023-05-23T07:56:41;24.40;54.30
40323;DHT22;26030;51.164;17.100;2023-05-23T08:01:46;24.30;54.20
40323;DHT22;26030;51.164;17.100;2023-05-23T08:06:55;24.30;54.30
40323;DHT22;26030;51.164;17.100;2023-05-23T08:12:07;24.40;53.80
40323;DHT22;26030;51.164;17.100;2023-05-23T08:17:13;24.40;53.60
40323;DHT22;26030;51.164;17.100;2023-05-23T08:22:18;24.30;53.40
40323;DHT22;26030;51.164;17.100;2023-05-23T08:27:22;24.40;53.30
40323;DHT22;26030;51.164;17.100;2023-05-23T08:32:30;24.30;53.30
40323;DHT22;26030;51.164;17.100;2023-05-23T08:37:35;24.30;53.30
40323;DHT22;26030;51.164;17.100;2023-05-23T08:42:39;24.40;52.90
40323;DHT22;26030;51.164;17.100;2023-05-23T08:47:44;24.40;53.30
40323;DHT22;26030;51.164;17.100;2023-05-23T08:52:56;24.40;53.30
40323;DHT22;26030;51.164;17.100;2023-05-23T08:58:02;24.30;53.60
40323;DHT22;26030;51.164;17.100;2023-05-23T09:03:29;24.30;53.80
40323;DHT22;26030;51.164;17.100;2023-05-23T09:09:06;24.50;53.80
40323;DHT22;26030;51.164;17.100;2023-05-23T09:14:11;24.50;53.80
40323;DHT22;26030;51.164;17.100;2023-05-23T09:19:17;24.40;54.10
40323;DHT22;26030;51.164;17.100;2023-05-23T09:24:33;24.50;53.90
40323;DHT22;26030;51.164;17.100;2023-05-23T09:29:41;24.60;53.70
40323;DHT22;26030;51.164;17.100;2023-05-23T09:39:54;24.50;54.00
40323;DHT22;26030;51.164;17.100;2023-05-23T09:44:59;24.50;54.80
40323;DHT22;26030;51.164;17.100;2023-05-23T09:50:06;24.50;54.90
40323;DHT22;26030;51.164;17.100;2023-05-23T09:55:11;24.50;55.10
40323;DHT22;26030;51.164;17.100;2023-05-23T10:00:16;24.50;55.90
40323;DHT22;26030;51.164;17.100;2023-05-23T10:05:43;24.50;55.60
40323;DHT22;26030;51.164;17.100;2023-05-23T10:16:11;24.50;56.20
40323;DHT22;26030;51.164;17.100;2023-05-23T10:21:23;24.50;56.80
40323;DHT22;26030;51.164;17.100;2023-05-23T10:26:34;24.50;57.40
40323;DHT22;26030;51.164;17.100;2023-05-23T10:31:39;24.50;57.50
40323;DHT22;26030;51.164;17.100;2023-05-23T10:37:06;24.50;57.50
40323;DHT22;26030;51.164;17.100;2023-05-23T10:42:10;24.60;57.60
40323;DHT22;26030;51.164;17.100;2023-05-23T10:47:26;24.60;57.60
40323;DHT22;26030;51.164;17.100;2023-05-23T10:52:38;24.60;57.70
40323;DHT22;26030;51.164;17.100;2023-05-23T10:57:45;24.60;57.80
40323;DHT22;26030;51.164;17.100;2023-05-23T11:02:52;24.60;57.80
40323;DHT22;26030;51.164;17.100;2023-05-23T11:08:08;24.60;57.70
40323;DHT22;26030;51.164;17.100;2023-05-23T11:13:13;24.70;57.60
40323;DHT22;26030;51.164;17.100;2023-05-23T11:18:21;24.60;57.80
40323;DHT22;26030;51.164;17.100;2023-05-23T11:23:38;24.60;58.30
40323;DHT22;26030;51.164;17.100;2023-05-23T11:28:56;24.50;58.60
40323;DHT22;26030;51.164;17.100;2023-05-23T11:34:01;24.60;59.50
40323;DHT22;26030;51.164;17.100;2023-05-23T11:39:06;24.70;58.80
40323;DHT22;26030;51.164;17.100;2023-05-23T11:44:11;24.70;58.90
40323;DHT22;26030;51.164;17.100;2023-05-23T11:49:15;24.70;59.10
40323;DHT22;26030;51.164;17.100;2023-05-23T11:54:23;24.70;59.00
40323;DHT22;26030;51.164;17.100;2023-05-23T11:59:29;24.70;59.20
40323;DHT22;26030;51.164;17.100;2023-05-23T12:04:33;24.70;59.10
40323;DHT22;26030;51.164;17.100;2023-05-23T12:09:42;24.70;58.80
40323;DHT22;26030;51.164;17.100;2023-05-23T12:14:47;24.70;58.80
40323;DHT22;26030;51.164;17.100;2023-05-23T12:19:51;24.70;59.00
40323;DHT22;26030;51.164;17.100;2023-05-23T12:24:56;24.70;58.80
40323;DHT22;26030;51.164;17.100;2023-05-23T12:30:08;24.60;58.80
40323;DHT22;26030;51.164;17.100;2023-05-23T12:35:24;24.60;58.70
40323;DHT22;26030;51.164;17.100;2023-05-23T12:40:28;24.50;59.10
40323;DHT22;26030;51.164;17.100;2023-05-23T12:45:33;24.50;58.90
40323;DHT22;26030;51.164;17.100;2023-05-23T12:50:39;24.50;58.70
40323;DHT22;26030;51.164;17.100;2023-05-23T12:55:43;24.50;58.60
40323;DHT22;26030;51.164;17.100;2023-05-23T13:00:48;24.50;58.10
40323;DHT22;26030;51.164;17.100;2023-05-23T13:05:52;24.50;58.40
40323;DHT22;26030;51.164;17.100;2023-05-23T13:10:56;24.60;58.20
40323;DHT22;26030;51.164;17.100;2023-05-23T13:16:01;24.60;58.00
40323;DHT22;26030;51.164;17.100;2023-05-23T13:21:05;24.60;58.10
40323;DHT22;26030;51.164;17.100;2023-05-23T13:26:09;24.60;58.00
40323;DHT22;26030;51.164;17.100;2023-05-23T13:31:13;24.60;58.20
40323;DHT22;26030;51.164;17.100;2023-05-23T13:36:18;24.50;58.20
40323;DHT22;26030;51.164;17.100;2023-05-23T13:41:22;24.50;58.20
40323;DHT22;26030;51.164;17.100;2023-05-23T13:46:27;24.60;58.50
40323;DHT22;26030;51.164;17.100;2023-05-23T13:51:31;24.70;58.60
40323;DHT22;26030;51.164;17.100;2023-05-23T13:56:36;24.70;58.80
40323;DHT22;26030;51.164;17.100;2023-05-23T14:01:42;24.70;59.10
40323;DHT22;26030;51.164;17.100;2023-05-23T14:06:46;24.70;58.80
40323;DHT22;26030;51.164;17.100;2023-05-23T14:11:50;24.70;60.50
40323;DHT22;26030;51.164;17.100;2023-05-23T14:16:55;24.80;60.10
40323;DHT22;26030;51.164;17.100;2023-05-23T14:22:00;24.80;59.70
40323;DHT22;26030;51.164;17.100;2023-05-23T14:27:04;24.80;59.60
40323;DHT22;26030;51.164;17.100;2023-05-23T14:32:13;24.70;59.50
40323;DHT22;26030;51.164;17.100;2023-05-23T14:37:17;24.70;59.00
40323;DHT22;26030;51.164;17.100;2023-05-23T14:42:21;24.70;60.00
40323;DHT22;26030;51.164;17.100;2023-05-23T14:47:25;24.60;61.80
40323;DHT22;26030;51.164;17.100;2023-05-23T14:52:30;24.60;64.00
40323;DHT22;26030;51.164;17.100;2023-05-23T14:57:34;24.70;63.60
40323;DHT22;26030;51.164;17.100;2023-05-23T15:02:38;24.60;60.90
40323;DHT22;26030;51.164;17.100;2023-05-23T15:07:42;24.50;58.80
40323;DHT22;26030;51.164;17.100;2023-05-23T15:12:50;24.40;58.80
40323;DHT22;26030;51.164;17.100;2023-05-23T15:17:54;24.50;59.80
40323;DHT22;26030;51.164;17.100;2023-05-23T15:22:58;24.60;60.20
40323;DHT22;26030;51.164;17.100;2023-05-23T15:28:02;24.90;64.50
40323;DHT22;26030;51.164;17.100;2023-05-23T15:33:08;25.00;63.50
40323;DHT22;26030;51.164;17.100;2023-05-23T15:38:12;24.90;63.00
40323;DHT22;26030;51.164;17.100;2023-05-23T15:43:20;24.90;62.10
40323;DHT22;26030;51.164;17.100;2023-05-23T15:48:24;24.90;60.90
40323;DHT22;26030;51.164;17.100;2023-05-23T15:53:29;24.90;60.90
40323;DHT22;26030;51.164;17.100;2023-05-23T15:58:39;25.00;61.60
40323;DHT22;26030;51.164;17.100;2023-05-23T16:03:43;25.10;62.90
40323;DHT22;26030;51.164;17.100;2023-05-23T16:08:47;25.10;63.50
40323;DHT22;26030;51.164;17.100;2023-05-23T16:13:52;25.20;63.20
40323;DHT22;26030;51.164;17.100;2023-05-23T16:18:56;25.30;63.50
40323;DHT22;26030;51.164;17.100;2023-05-23T16:24:00;25.10;63.20
40323;DHT22;26030;51.164;17.100;2023-05-23T16:29:05;25.30;63.20
40323;DHT22;26030;51.164;17.100;2023-05-23T16:34:12;25.20;63.20
40323;DHT22;26030;51.164;17.100;2023-05-23T16:39:16;25.00;63.90
40323;DHT22;26030;51.164;17.100;2023-05-23T16:44:20;25.10;62.80
40323;DHT22;26030;51.164;17.100;2023-05-23T16:49:26;25.20;62.30
40323;DHT22;26030;51.164;17.100;2023-05-23T16:54:30;25.20;63.00
40323;DHT22;26030;51.164;17.100;2023-05-23T16:59:36;25.10;63.00
40323;DHT22;26030;51.164;17.100;2023-05-23T17:04:41;25.10;62.80
40323;DHT22;26030;51.164;17.100;2023-05-23T17:09:45;25.00;62.40
40323;DHT22;26030;51.164;17.100;2023-05-23T17:14:49;24.80;62.90
40323;DHT22;26030;51.164;17.100;2023-05-23T17:19:54;24.60;62.70
40323;DHT22;26030;51.164;17.100;2023-05-23T17:24:57;24.70;62.70
40323;DHT22;26030;51.164;17.100;2023-05-23T17:30:03;24.70;62.20
40323;DHT22;26030;51.164;17.100;2023-05-23T17:35:08;24.70;62.30
40323;DHT22;26030;51.164;17.100;2023-05-23T17:40:13;24.70;61.00
40323;DHT22;26030;51.164;17.100;2023-05-23T17:45:18;24.70;64.90
40323;DHT22;26030;51.164;17.100;2023-05-23T17:50:22;24.60;61.60
40323;DHT22;26030;51.164;17.100;2023-05-23T17:55:26;24.70;61.50
40323;DHT22;26030;51.164;17.100;2023-05-23T18:00:34;24.80;61.10
40323;DHT22;26030;51.164;17.100;2023-05-23T18:05:39;24.90;61.90
40323;DHT22;26030;51.164;17.100;2023-05-23T18:10:43;24.90;62.10
40323;DHT22;26030;51.164;17.100;2023-05-23T18:15:49;25.00;62.30
40323;DHT22;26030;51.164;17.100;2023-05-23T18:20:54;24.90;63.00
40323;DHT22;26030;51.164;17.100;2023-05-23T18:25:58;24.90;63.00
40323;DHT22;26030;51.164;17.100;2023-05-23T18:31:03;24.90;63.30
40323;DHT22;26030;51.164;17.100;2023-05-23T18:36:07;24.90;63.50
40323;DHT22;26030;51.164;17.100;2023-05-23T18:41:11;24.90;62.80
40323;DHT22;26030;51.164;17.100;2023-05-23T18:46:17;24.90;63.20
40323;DHT22;26030;51.164;17.100;2023-05-23T18:51:21;24.90;63.00
40323;DHT22;26030;51.164;17.100;2023-05-23T18:56:26;24.90;63.40
40323;DHT22;26030;51.164;17.100;2023-05-23T19:01:32;24.80;63.20
40323;DHT22;26030;51.164;17.100;2023-05-23T19:06:36;24.90;62.40
40323;DHT22;26030;51.164;17.100;2023-05-23T19:11:41;25.00;62.40
40323;DHT22;26030;51.164;17.100;2023-05-23T19:16:45;24.90;62.90
40323;DHT22;26030;51.164;17.100;2023-05-23T19:21:50;24.90;63.70
40323;DHT22;26030;51.164;17.100;2023-05-23T19:26:55;24.80;64.30
40323;DHT22;26030;51.164;17.100;2023-05-23T19:31:59;24.90;63.60
40323;DHT22;26030;51.164;17.100;2023-05-23T19:37:04;25.10;63.40
40323;DHT22;26030;51.164;17.100;2023-05-23T19:42:09;24.90;64.00
40323;DHT22;26030;51.164;17.100;2023-05-23T19:47:13;24.90;65.90
40323;DHT22;26030;51.164;17.100;2023-05-23T19:52:17;25.10;66.60
40323;DHT22;26030;51.164;17.100;2023-05-23T19:57:21;25.10;66.10
40323;DHT22;26030;51.164;17.100;2023-05-23T20:02:25;25.00;65.90
40323;DHT22;26030;51.164;17.100;2023-05-23T20:07:29;25.10;66.50
40323;DHT22;26030;51.164;17.100;2023-05-23T20:12:34;25.10;65.80
40323;DHT22;26030;51.164;17.100;2023-05-23T20:17:38;25.00;65.60
40323;DHT22;26030;51.164;17.100;2023-05-23T20:22:42;24.90;66.00
40323;DHT22;26030;51.164;17.100;2023-05-23T20:27:46;25.00;65.70
40323;DHT22;26030;51.164;17.100;2023-05-23T20:32:50;25.00;65.60
40323;DHT22;26030;51.164;17.100;2023-05-23T20:37:56;25.00;65.60
40323;DHT22;26030;51.164;17.100;2023-05-23T20:43:01;25.00;65.50
40323;DHT22;26030;51.164;17.100;2023-05-23T20:48:07;25.10;65.50
40323;DHT22;26030;51.164;17.100;2023-05-23T20:53:12;25.00;65.60
40323;DHT22;26030;51.164;17.100;2023-05-23T20:58:17;25.00;65.40
40323;DHT22;26030;51.164;17.100;2023-05-23T21:03:22;25.00;65.70
40323;DHT22;26030;51.164;17.100;2023-05-23T21:08:26;25.10;65.10
40323;DHT22;26030;51.164;17.100;2023-05-23T21:13:30;25.00;65.20
40323;DHT22;26030;51.164;17.100;2023-05-23T21:18:34;25.00;65.40
40323;DHT22;26030;51.164;17.100;2023-05-23T21:23:38;24.90;65.40
40323;DHT22;26030;51.164;17.100;2023-05-23T21:28:42;24.90;65.30
40323;DHT22;26030;51.164;17.100;2023-05-23T21:33:47;24.90;65.70
40323;DHT22;26030;51.164;17.100;2023-05-23T21:38:51;24.90;65.50
40323;DHT22;26030;51.164;17.100;2023-05-23T21:43:55;24.90;65.30
40323;DHT22;26030;51.164;17.100;2023-05-23T21:49:00;24.90;65.20
40323;DHT22;26030;51.164;17.100;2023-05-23T21:54:04;24.90;65.20
40323;DHT22;26030;51.164;17.100;2023-05-23T21:59:09;25.00;65.00
40323;DHT22;26030;51.164;17.100;2023-05-23T22:04:13;24.70;65.50
40323;DHT22;26030;51.164;17.100;2023-05-23T22:09:21;24.80;65.40
40323;DHT22;26030;51.164;17.100;2023-05-23T22:14:25;24.90;65.50
40323;DHT22;26030;51.164;17.100;2023-05-23T22:19:29;24.80;65.60
40323;DHT22;26030;51.164;17.100;2023-05-23T22:24:34;24.90;65.50
40323;DHT22;26030;51.164;17.100;2023-05-23T22:29:38;24.90;65.90
40323;DHT22;26030;51.164;17.100;2023-05-23T22:34:42;24.80;65.60
40323;DHT22;26030;51.164;17.100;2023-05-23T22:39:48;24.80;65.60
40323;DHT22;26030;51.164;17.100;2023-05-23T22:44:52;24.70;66.00
40323;DHT22;26030;51.164;17.100;2023-05-23T22:49:56;24.80;65.70
40323;DHT22;26030;51.164;17.100;2023-05-23T22:55:01;24.70;65.90
40323;DHT22;26030;51.164;17.100;2023-05-23T23:00:09;24.70;65.90
40323;DHT22;26030;51.164;17.100;2023-05-23T23:05:14;24.60;65.90
40323;DHT22;26030;51.164;17.100;2023-05-23T23:10:18;24.60;65.50
40323;DHT22;26030;51.164;17.100;2023-05-23T23:15:22;24.60;65.50
40323;DHT22;26030;51.164;17.100;2023-05-23T23:20:27;24.70;65.50
40323;DHT22;26030;51.164;17.100;2023-05-23T23:25:31;24.80;65.20
40323;DHT22;26030;51.164;17.100;2023-05-23T23:30:36;24.70;65.20
40323;DHT22;26030;51.164;17.100;2023-05-23T23:35:40;24.70;65.30
40323;DHT22;26030;51.164;17.100;2023-05-23T23:40:47;24.60;65.10
40323;DHT22;26030;51.164;17.100;2023-05-23T23:45:51;24.70;65.20
40323;DHT22;26030;51.164;17.100;2023-05-23T23:50:56;24.70;65.20
40323;DHT22;26030;51.164;17.100;2023-05-23T23:56:00;24.60;65.00
